Terminal Aerodrome Forecast
Issued by NWS

Home | Current Version | Previous Version | Text Only | Print | Product List | Glossary On
Versions: 1 2 3 4 5 6 7 8 9 10 11 12 13 14 15 16 17 18 19 20 21 22
000
FTUS42 KTBW 032300
TAFPGD
TAF
KPGD 032324Z 0400/0424 12004KT P6SM SCT250
     FM040800 11004KT 4SM BR SCT010
      TEMPO 0409/0413 1SM BR BKN010
     FM041400 15010KT P6SM SCT015
     FM041700 18012KT P6SM SCT035=

USA.gov is the U.S. government's official web portal to all federal, state and local government web resources and services.